createdAt,value
2022-07-31T00:00:38.240Z,3.88
2022-07-31T00:03:39.637Z,3.90
2022-07-31T00:06:41.276Z,3.10
2022-07-31T00:09:53.102Z,3.30
2022-07-31T00:12:55.527Z,3.00
2022-07-31T00:15:56.816Z,2.88
2022-07-31T00:18:58.250Z,4.05
2022-07-31T00:21:59.564Z,4.13
2022-07-31T00:25:01.109Z,3.60
2022-07-31T00:28:02.711Z,3.08
2022-07-31T00:31:04.047Z,3.38
2022-07-31T00:34:05.339Z,3.28
2022-07-31T00:37:06.997Z,4.75
2022-07-31T00:40:09.595Z,3.70
2022-07-31T00:43:10.991Z,4.35
2022-07-31T00:46:14.477Z,4.60
2022-07-31T00:49:16.106Z,3.60
2022-07-31T00:52:17.490Z,4.03
2022-07-31T00:55:18.842Z,4.07
2022-07-31T00:58:20.629Z,4.50
2022-07-31T01:01:22.997Z,4.68
2022-07-31T01:04:24.405Z,5.32
2022-07-31T01:07:25.989Z,4.05
2022-07-31T01:10:49.657Z,3.65
2022-07-31T01:16:53.229Z,4.13
2022-07-31T01:19:54.850Z,4.43
2022-07-31T01:23:02.784Z,4.07
2022-07-31T01:26:19.410Z,3.78
2022-07-31T01:29:29.043Z,4.65
2022-07-31T01:32:35.525Z,3.97
2022-07-31T01:35:40.810Z,3.97
2022-07-31T01:38:45.770Z,5.20
2022-07-31T01:41:48.452Z,3.97
2022-07-31T01:44:53.010Z,3.15
2022-07-31T01:47:55.606Z,3.22
2022-07-31T01:50:58.270Z,5.13
2022-07-31T01:54:00.367Z,4.22
2022-07-31T01:57:02.924Z,4.10
2022-07-31T02:00:06.646Z,4.97
2022-07-31T02:06:46.375Z,6.05
2022-07-31T02:09:53.689Z,5.05
2022-07-31T02:13:02.746Z,4.47
2022-07-31T02:16:04.377Z,3.85
2022-07-31T02:19:07.818Z,4.22
2022-07-31T02:22:09.134Z,4.93
2022-07-31T02:25:10.535Z,4.78
2022-07-31T02:28:15.139Z,3.50
2022-07-31T02:31:17.279Z,4.10
2022-07-31T02:34:19.300Z,3.92
2022-07-31T02:37:20.618Z,4.28
2022-07-31T02:40:24.436Z,3.92
2022-07-31T02:43:27.024Z,4.22
2022-07-31T02:46:28.492Z,3.83
2022-07-31T02:49:30.511Z,3.65
2022-07-31T02:52:33.174Z,3.95
2022-07-31T02:55:34.619Z,5.38
2022-07-31T02:58:38.382Z,3.88
2022-07-31T03:01:39.671Z,3.72
2022-07-31T03:04:41.084Z,3.65
2022-07-31T03:07:42.993Z,4.68
2022-07-31T03:10:44.345Z,3.67
2022-07-31T03:13:46.943Z,5.43
2022-07-31T03:16:48.502Z,4.97
2022-07-31T03:19:50.010Z,4.40
2022-07-31T03:22:51.326Z,4.45
2022-07-31T03:25:54.159Z,5.50
2022-07-31T03:28:55.643Z,3.88
2022-07-31T03:31:56.936Z,3.63
2022-07-31T03:34:58.211Z,4.55
2022-07-31T03:37:59.763Z,5.40
2022-07-31T03:41:01.069Z,3.65
2022-07-31T03:44:02.574Z,3.75
2022-07-31T03:47:03.990Z,4.05
2022-07-31T03:50:05.573Z,3.72
2022-07-31T03:53:07.954Z,4.03
2022-07-31T03:56:13.018Z,3.90
2022-07-31T03:59:15.414Z,4.63
2022-07-31T04:02:18.880Z,5.03
2022-07-31T04:05:20.461Z,4.63
2022-07-31T04:08:21.773Z,4.40
2022-07-31T04:11:23.114Z,3.80
2022-07-31T04:14:24.402Z,3.90
2022-07-31T04:17:25.712Z,4.40
2022-07-31T04:20:26.996Z,3.70
2022-07-31T04:23:32.429Z,3.08
2022-07-31T04:26:34.030Z,3.88
2022-07-31T04:29:35.324Z,4.38
2022-07-31T04:32:36.618Z,4.93
2022-07-31T04:35:38.055Z,3.78
2022-07-31T04:38:39.456Z,3.83
2022-07-31T04:41:40.848Z,6.47
2022-07-31T04:44:42.159Z,3.55
2022-07-31T04:47:43.459Z,4.85
2022-07-31T04:50:44.847Z,3.45
2022-07-31T04:53:46.505Z,4.15
2022-07-31T04:56:48.495Z,5.20
2022-07-31T04:59:59.434Z,3.60
2022-07-31T05:03:02.060Z,5.07
2022-07-31T05:06:21.442Z,4.20
2022-07-31T05:09:25.444Z,3.92
2022-07-31T05:12:26.980Z,3.50
2022-07-31T05:15:28.277Z,3.97
2022-07-31T05:18:29.570Z,4.63
2022-07-31T05:21:31.055Z,3.75
2022-07-31T05:24:33.686Z,3.95
2022-07-31T05:27:38.972Z,3.28
2022-07-31T05:30:42.816Z,3.83
2022-07-31T05:33:44.857Z,3.53
2022-07-31T05:36:46.183Z,4.65
2022-07-31T05:39:47.492Z,4.57
2022-07-31T05:42:48.800Z,4.40
2022-07-31T05:45:50.451Z,3.83
2022-07-31T05:48:51.869Z,5.80
2022-07-31T05:51:56.734Z,5.10
2022-07-31T05:54:58.039Z,4.03
2022-07-31T05:57:59.437Z,4.82
2022-07-31T06:01:01.093Z,4.60
2022-07-31T06:04:03.029Z,5.53
2022-07-31T06:07:04.341Z,4.65
2022-07-31T06:10:05.777Z,4.50
2022-07-31T06:13:07.292Z,4.75
2022-07-31T06:16:11.670Z,4.60
2022-07-31T06:19:12.974Z,5.43
2022-07-31T06:22:14.269Z,5.85
2022-07-31T06:25:16.463Z,4.05
2022-07-31T06:28:17.785Z,4.53
2022-07-31T06:31:19.730Z,4.72
2022-07-31T06:34:21.035Z,5.03
2022-07-31T06:37:22.326Z,4.10
2022-07-31T06:40:23.621Z,3.92
2022-07-31T06:43:26.167Z,3.97
2022-07-31T06:46:28.257Z,3.95
2022-07-31T06:49:29.614Z,4.30
2022-07-31T06:52:30.973Z,4.40
2022-07-31T06:55:32.312Z,3.67
2022-07-31T06:58:33.630Z,5.25
2022-07-31T07:01:35.010Z,4.57
2022-07-31T07:05:05.209Z,4.10
2022-07-31T07:07:58.063Z,4.20
2022-07-31T07:10:59.395Z,4.68
2022-07-31T07:14:00.801Z,4.35
2022-07-31T07:17:03.550Z,4.15
2022-07-31T07:20:05.153Z,3.90
2022-07-31T07:23:06.594Z,6.20
2022-07-31T07:26:08.319Z,4.55
2022-07-31T07:29:10.558Z,3.63
2022-07-31T07:32:13.223Z,3.55
2022-07-31T07:35:14.568Z,3.78
2022-07-31T07:38:15.880Z,10.38
2022-07-31T07:41:18.789Z,4.45
2022-07-31T07:44:20.267Z,4.32
2022-07-31T07:47:21.569Z,3.20
2022-07-31T07:50:26.943Z,3.20
2022-07-31T07:53:30.906Z,4.50
2022-07-31T07:56:32.250Z,3.30
2022-07-31T07:59:33.591Z,3.83
2022-07-31T08:02:34.882Z,3.55
2022-07-31T08:05:36.214Z,4.13
2022-07-31T08:08:37.701Z,4.05
2022-07-31T08:11:39.034Z,3.40
2022-07-31T08:14:40.369Z,2.90
2022-07-31T08:17:41.653Z,4.32
2022-07-31T08:20:44.703Z,3.70
2022-07-31T08:23:46.054Z,3.53
2022-07-31T08:27:08.706Z,3.90
2022-07-31T08:30:14.993Z,3.25
2022-07-31T08:33:16.295Z,2.90
2022-07-31T08:36:17.618Z,3.50
2022-07-31T08:39:21.320Z,3.17
2022-07-31T08:42:23.817Z,4.15
2022-07-31T08:45:25.154Z,3.15
2022-07-31T08:48:27.660Z,3.05
2022-07-31T08:51:30.779Z,3.78
2022-07-31T08:54:34.416Z,3.35
2022-07-31T08:57:36.077Z,3.00
2022-07-31T09:00:37.487Z,3.17
2022-07-31T09:03:38.909Z,3.00
2022-07-31T09:06:40.361Z,3.20
2022-07-31T09:09:51.992Z,3.38
2022-07-31T09:12:54.493Z,2.53
2022-07-31T09:15:59.253Z,3.28
2022-07-31T09:19:01.568Z,3.00
2022-07-31T09:22:06.142Z,3.38
2022-07-31T09:25:12.820Z,2.65
2022-07-31T09:28:14.134Z,3.20
2022-07-31T09:31:16.044Z,3.10
2022-07-31T09:34:25.694Z,2.70
2022-07-31T09:37:30.425Z,2.90
2022-07-31T09:40:35.335Z,4.40
2022-07-31T09:43:46.176Z,3.10
2022-07-31T09:46:53.146Z,3.15
2022-07-31T09:49:54.620Z,3.83
2022-07-31T09:53:00.518Z,3.10
2022-07-31T09:56:01.856Z,3.47
2022-07-31T09:59:03.434Z,3.03
2022-07-31T10:02:05.340Z,2.80
2022-07-31T10:05:07.238Z,3.58
2022-07-31T10:08:08.602Z,3.40
2022-07-31T10:11:16.711Z,4.55
2022-07-31T10:14:21.012Z,3.08
2022-07-31T10:17:25.038Z,3.22
2022-07-31T10:20:26.673Z,3.30
2022-07-31T10:23:30.439Z,4.15
2022-07-31T10:26:57.898Z,4.45
2022-07-31T10:29:54.631Z,2.95
2022-07-31T10:32:56.298Z,2.45
2022-07-31T10:36:05.743Z,2.90
2022-07-31T10:39:14.170Z,3.13
2022-07-31T10:42:47.983Z,2.60
2022-07-31T10:45:49.986Z,2.65
2022-07-31T10:48:52.393Z,2.45
2022-07-31T10:51:54.411Z,2.38
2022-07-31T10:54:58.225Z,3.00
2022-07-31T10:58:09.153Z,2.67
2022-07-31T11:01:11.957Z,3.17
2022-07-31T11:04:26.273Z,2.75
2022-07-31T11:07:27.575Z,2.60
2022-07-31T11:10:29.417Z,3.30
2022-07-31T11:13:33.626Z,3.97
2022-07-31T11:16:49.280Z,2.75
2022-07-31T11:19:50.651Z,2.67
2022-07-31T11:22:55.752Z,2.92
2022-07-31T11:26:01.863Z,3.10
2022-07-31T11:30:01.158Z,2.80
2022-07-31T11:32:25.988Z,2.90
2022-07-31T11:35:29.101Z,2.75
2022-07-31T11:38:30.501Z,3.20
2022-07-31T11:41:44.234Z,3.08
2022-07-31T11:44:46.256Z,3.10
2022-07-31T11:48:12.395Z,3.10
2022-07-31T11:54:11.893Z,3.25
2022-07-31T11:57:13.236Z,3.22
2022-07-31T12:00:26.067Z,2.35
2022-07-31T12:03:36.285Z,3.80
2022-07-31T12:06:39.183Z,2.90
2022-07-31T12:10:02.872Z,2.88
2022-07-31T12:13:02.047Z,2.80
2022-07-31T12:16:07.941Z,3.05
2022-07-31T12:19:09.293Z,3.03
2022-07-31T12:22:17.924Z,3.20
2022-07-31T12:25:19.703Z,2.42
2022-07-31T12:28:21.151Z,2.55
2022-07-31T12:31:22.554Z,2.67
2022-07-31T12:34:50.071Z,2.85
2022-07-31T12:37:53.819Z,3.97
2022-07-31T12:41:05.103Z,4.72
2022-07-31T12:44:13.471Z,2.42
2022-07-31T12:47:22.192Z,2.30
2022-07-31T12:50:28.622Z,3.05
2022-07-31T12:53:30.380Z,2.10
2022-07-31T12:56:38.591Z,2.47
2022-07-31T12:59:40.006Z,2.47
2022-07-31T13:02:42.275Z,2.60
2022-07-31T13:05:43.831Z,2.50
2022-07-31T13:08:45.151Z,3.30
2022-07-31T13:11:48.574Z,2.42
2022-07-31T13:14:50.565Z,2.63
2022-07-31T13:17:51.969Z,2.28
2022-07-31T13:20:53.278Z,2.38
2022-07-31T13:23:56.249Z,2.13
2022-07-31T13:26:58.795Z,2.45
2022-07-31T13:30:00.538Z,3.10
2022-07-31T13:33:03.356Z,2.03
2022-07-31T13:36:05.778Z,2.17
2022-07-31T13:39:07.768Z,2.25
2022-07-31T13:42:09.059Z,2.58
2022-07-31T13:45:10.418Z,2.40
2022-07-31T13:48:11.733Z,2.05
2022-07-31T13:51:13.392Z,2.00
2022-07-31T13:54:14.683Z,2.60
2022-07-31T13:57:16.056Z,2.63
2022-07-31T14:00:17.383Z,2.63
2022-07-31T14:03:21.312Z,2.25
2022-07-31T14:06:22.760Z,2.92
2022-07-31T14:09:24.238Z,2.28
2022-07-31T14:12:25.569Z,2.03
2022-07-31T14:15:30.168Z,2.63
2022-07-31T14:18:32.738Z,2.80
2022-07-31T14:21:34.617Z,2.35
2022-07-31T14:24:37.773Z,2.63
2022-07-31T14:27:39.339Z,2.30
2022-07-31T14:30:46.041Z,2.33
2022-07-31T14:33:51.063Z,2.30
2022-07-31T14:36:53.018Z,2.22
2022-07-31T14:39:54.500Z,3.15
2022-07-31T14:42:56.328Z,2.00
2022-07-31T14:45:57.637Z,2.15
2022-07-31T14:48:59.933Z,2.00
2022-07-31T14:52:01.313Z,2.63
2022-07-31T14:55:02.676Z,2.03
2022-07-31T14:58:04.022Z,2.08
2022-07-31T15:01:05.402Z,2.42
2022-07-31T15:04:06.794Z,2.13
2022-07-31T15:07:33.752Z,2.58
2022-07-31T15:10:29.430Z,2.28
2022-07-31T15:13:30.918Z,2.38
2022-07-31T15:16:32.231Z,2.15
2022-07-31T15:19:33.543Z,1.90
2022-07-31T15:22:34.886Z,2.15
2022-07-31T15:25:36.237Z,2.20
2022-07-31T15:28:37.593Z,3.33
2022-07-31T15:31:39.069Z,2.08
2022-07-31T15:34:40.412Z,2.38
2022-07-31T15:37:43.984Z,2.65
2022-07-31T15:40:47.029Z,1.90
2022-07-31T15:46:49.576Z,4.22
2022-07-31T15:49:50.871Z,1.90
2022-07-31T15:52:52.153Z,1.63
2022-07-31T15:55:53.455Z,1.80
2022-07-31T15:58:54.826Z,1.77
2022-07-31T16:01:56.186Z,1.70
2022-07-31T16:05:11.473Z,1.90
2022-07-31T16:08:28.940Z,2.55
2022-07-31T16:12:02.966Z,2.30
2022-07-31T16:14:57.247Z,2.22
2022-07-31T16:17:58.593Z,2.38
2022-07-31T16:20:59.901Z,2.15
2022-07-31T16:24:01.265Z,2.22
2022-07-31T16:27:03.276Z,2.95
2022-07-31T16:30:05.602Z,1.60
2022-07-31T16:33:07.142Z,2.10
2022-07-31T16:36:08.602Z,2.40
2022-07-31T16:39:20.440Z,1.88
2022-07-31T16:42:22.033Z,1.77
2022-07-31T16:45:23.357Z,3.03
2022-07-31T16:48:24.795Z,1.30
2022-07-31T16:51:26.086Z,1.80
2022-07-31T16:54:27.399Z,2.10
2022-07-31T16:57:29.220Z,2.22
2022-07-31T17:00:30.704Z,2.20
2022-07-31T17:04:00.629Z,1.85
2022-07-31T17:06:53.423Z,1.83
2022-07-31T17:09:54.753Z,2.08
2022-07-31T17:12:56.382Z,2.90
2022-07-31T17:15:57.788Z,1.75
2022-07-31T17:18:59.095Z,2.20
2022-07-31T17:22:07.777Z,2.15
2022-07-31T17:25:09.459Z,1.55
2022-07-31T17:28:14.985Z,1.77
2022-07-31T17:31:16.894Z,1.55
2022-07-31T17:34:18.217Z,2.28
2022-07-31T17:37:19.647Z,1.88
2022-07-31T17:40:41.968Z,2.20
2022-07-31T17:43:50.462Z,2.10
2022-07-31T17:46:54.480Z,2.00
2022-07-31T17:49:55.863Z,2.00
2022-07-31T17:52:57.164Z,2.20
2022-07-31T17:55:58.540Z,2.90
2022-07-31T17:59:05.285Z,3.28
2022-07-31T18:02:06.888Z,2.20
2022-07-31T18:05:08.597Z,2.72
2022-07-31T18:08:09.911Z,2.42
2022-07-31T18:11:11.199Z,1.58
2022-07-31T18:14:12.574Z,2.42
2022-07-31T18:17:14.129Z,2.63
2022-07-31T18:20:17.609Z,2.70
2022-07-31T18:23:18.912Z,2.55
2022-07-31T18:26:20.286Z,2.58
2022-07-31T18:29:22.204Z,2.20
2022-07-31T18:32:23.683Z,2.10
2022-07-31T18:35:24.990Z,2.80
2022-07-31T18:38:26.296Z,2.22
2022-07-31T18:41:27.734Z,2.30
2022-07-31T18:44:29.299Z,3.15
2022-07-31T18:47:30.625Z,3.22
2022-07-31T18:50:58.985Z,2.53
2022-07-31T18:53:54.759Z,1.85
2022-07-31T18:56:56.175Z,2.30
2022-07-31T18:59:57.458Z,2.53
2022-07-31T19:02:58.776Z,2.50
2022-07-31T19:06:00.061Z,2.40
2022-07-31T19:09:01.829Z,2.58
2022-07-31T19:12:08.026Z,2.20
2022-07-31T19:15:10.148Z,2.15
2022-07-31T19:18:11.589Z,2.92
2022-07-31T19:21:22.821Z,2.10
2022-07-31T19:24:36.700Z,2.50
2022-07-31T19:27:48.332Z,1.98
2022-07-31T19:30:54.695Z,2.40
2022-07-31T19:33:56.047Z,2.22
2022-07-31T19:36:57.352Z,2.00
2022-07-31T19:39:58.708Z,3.13
2022-07-31T19:43:00.045Z,2.50
2022-07-31T19:46:11.156Z,2.90
2022-07-31T19:49:13.898Z,2.30
2022-07-31T19:52:15.353Z,2.10
2022-07-31T19:55:17.325Z,2.30
2022-07-31T19:58:19.836Z,3.17
2022-07-31T20:01:21.680Z,2.53
2022-07-31T20:04:23.073Z,4.30
2022-07-31T20:07:24.421Z,2.60
2022-07-31T20:10:25.777Z,2.67
2022-07-31T20:13:27.978Z,2.03
2022-07-31T20:16:29.450Z,2.85
2022-07-31T20:19:30.869Z,2.53
2022-07-31T20:22:32.430Z,2.72
2022-07-31T20:25:33.777Z,2.65
2022-07-31T20:28:35.650Z,3.67
2022-07-31T20:31:37.021Z,2.45
2022-07-31T20:34:38.342Z,3.90
2022-07-31T20:37:40.593Z,2.70
2022-07-31T20:40:43.410Z,2.40
2022-07-31T20:43:54.482Z,2.35
2022-07-31T20:46:55.904Z,2.15
2022-07-31T20:49:57.254Z,2.60
2022-07-31T20:52:58.560Z,2.55
2022-07-31T20:55:59.936Z,2.35
2022-07-31T20:59:01.285Z,3.10
2022-07-31T21:02:02.744Z,2.63
2022-07-31T21:05:04.460Z,2.47
2022-07-31T21:08:05.770Z,2.83
2022-07-31T21:11:07.151Z,2.40
2022-07-31T21:14:08.504Z,3.83
2022-07-31T21:17:09.814Z,3.58
2022-07-31T21:20:11.477Z,2.20
2022-07-31T21:23:14.282Z,2.50
2022-07-31T21:26:16.377Z,3.10
2022-07-31T21:29:17.770Z,2.40
2022-07-31T21:32:19.199Z,3.08
2022-07-31T21:35:36.423Z,2.40
2022-07-31T21:38:40.076Z,2.97
2022-07-31T21:41:41.726Z,2.50
2022-07-31T21:44:44.990Z,2.88
2022-07-31T21:47:52.749Z,2.78
2022-07-31T21:50:54.770Z,2.55
2022-07-31T21:53:56.093Z,2.90
2022-07-31T21:56:57.430Z,2.58
2022-07-31T21:59:59.042Z,2.35
2022-07-31T22:03:00.949Z,2.65
2022-07-31T22:06:25.823Z,2.50
2022-07-31T22:09:28.074Z,2.83
2022-07-31T22:12:29.426Z,2.50
2022-07-31T22:15:55.559Z,2.70
2022-07-31T22:18:52.156Z,2.80
2022-07-31T22:21:53.619Z,2.80
2022-07-31T22:24:54.951Z,2.55
2022-07-31T22:27:56.507Z,2.45
2022-07-31T22:30:58.342Z,2.30
2022-07-31T22:33:59.694Z,3.25
2022-07-31T22:37:01.227Z,2.50
2022-07-31T22:40:03.791Z,3.33
2022-07-31T22:44:09.915Z,2.63
2022-07-31T22:46:27.798Z,2.95
2022-07-31T22:49:29.178Z,3.80
2022-07-31T22:52:34.518Z,3.53
2022-07-31T22:55:38.144Z,2.97
2022-07-31T22:58:39.436Z,3.28
2022-07-31T23:01:40.758Z,2.72
2022-07-31T23:04:42.626Z,3.97
2022-07-31T23:07:43.907Z,2.97
2022-07-31T23:10:45.243Z,3.20
2022-07-31T23:13:46.554Z,3.45
2022-07-31T23:16:49.519Z,3.15
2022-07-31T23:19:53.792Z,3.13
2022-07-31T23:22:55.868Z,4.50
2022-07-31T23:25:57.177Z,2.85
2022-07-31T23:28:58.595Z,2.53
2022-07-31T23:31:59.886Z,2.67
2022-07-31T23:35:01.240Z,2.50
2022-07-31T23:38:02.601Z,2.53
2022-07-31T23:41:03.922Z,2.60
2022-07-31T23:44:05.385Z,3.22
2022-07-31T23:47:11.681Z,2.70
2022-07-31T23:50:17.383Z,2.67
2022-07-31T23:53:18.735Z,3.03
2022-07-31T23:56:20.077Z,2.83
2022-07-31T23:59:21.363Z,4.53
